createdAt,value
2023-01-28T00:00:35.940Z,0.40
2023-01-28T00:03:22.721Z,0.40
2023-01-28T00:05:49.403Z,0.40
2023-01-28T00:08:15.981Z,0.40
2023-01-28T00:10:42.510Z,0.40
2023-01-28T00:13:11.982Z,0.40
2023-01-28T00:15:38.649Z,0.40
2023-01-28T00:18:05.119Z,0.40
2023-01-28T00:20:31.689Z,0.40
2023-01-28T00:22:58.130Z,0.40
2023-01-28T00:25:24.735Z,0.40
2023-01-28T00:27:51.565Z,0.40
2023-01-28T00:30:18.890Z,0.40
2023-01-28T00:32:45.520Z,0.40
2023-01-28T00:35:13.266Z,0.40
2023-01-28T00:37:40.710Z,0.40
2023-01-28T00:40:09.464Z,0.40
2023-01-28T00:42:36.839Z,0.40
2023-01-28T00:45:03.869Z,0.40
2023-01-28T00:47:30.342Z,0.42
2023-01-28T00:49:57.315Z,0.40
2023-01-28T00:52:23.748Z,0.48
2023-01-28T00:54:50.314Z,0.48
2023-01-28T00:57:16.827Z,0.46
2023-01-28T00:59:44.090Z,0.46
2023-01-28T01:02:13.533Z,0.44
2023-01-28T01:04:40.271Z,0.42
2023-01-28T01:07:06.863Z,0.40
2023-01-28T01:09:33.573Z,0.40
2023-01-28T01:12:00.367Z,0.40
2023-01-28T01:14:27.023Z,0.40
2023-01-28T01:16:53.628Z,0.40
2023-01-28T01:19:20.735Z,0.38
2023-01-28T01:21:50.004Z,0.30
2023-01-28T01:24:16.635Z,0.30
2023-01-28T01:26:43.274Z,0.30
2023-01-28T01:29:09.874Z,0.30
2023-01-28T01:31:36.594Z,0.30
2023-01-28T01:34:03.300Z,0.30
2023-01-28T01:36:30.315Z,0.30
2023-01-28T01:38:57.069Z,0.30
2023-01-28T01:41:32.642Z,0.30
2023-01-28T01:44:01.970Z,0.30
2023-01-28T01:46:42.859Z,0.30
2023-01-28T01:49:21.310Z,0.30
2023-01-28T01:51:51.157Z,0.30
2023-01-28T01:54:17.818Z,0.30
2023-01-28T01:56:44.792Z,0.30
2023-01-28T01:59:13.625Z,0.30
2023-01-28T02:01:41.396Z,0.30
2023-01-28T02:04:13.179Z,0.30
2023-01-28T02:06:39.820Z,0.30
2023-01-28T02:09:24.311Z,0.30
2023-01-28T02:12:29.099Z,0.30
2023-01-28T02:15:08.223Z,0.28
2023-01-28T02:17:36.323Z,0.30
2023-01-28T02:20:13.452Z,0.30
2023-01-28T02:23:04.784Z,0.30
2023-01-28T02:25:58.777Z,0.30
2023-01-28T02:28:43.591Z,0.24
2023-01-28T02:31:29.632Z,0.24
2023-01-28T02:34:04.682Z,0.20
2023-01-28T02:36:52.572Z,0.20
2023-01-28T02:39:26.065Z,0.20
2023-01-28T02:42:09.195Z,0.20
2023-01-28T02:44:35.912Z,0.24
2023-01-28T02:47:21.379Z,0.28
2023-01-28T02:49:52.898Z,0.28
2023-01-28T02:52:53.686Z,0.22
2023-01-28T02:55:49.261Z,0.20
2023-01-28T02:59:26.837Z,0.20
2023-01-28T03:02:19.894Z,0.20
2023-01-28T03:05:22.129Z,0.20
2023-01-28T03:07:48.978Z,0.20
2023-01-28T03:10:19.362Z,0.20
2023-01-28T03:13:07.588Z,0.20
2023-01-28T03:16:07.402Z,0.20
2023-01-28T03:19:05.336Z,0.20
2023-01-28T03:21:59.081Z,0.20
2023-01-28T03:24:50.771Z,0.20
2023-01-28T03:27:52.432Z,0.20
2023-01-28T03:30:46.267Z,0.16
2023-01-28T03:33:38.279Z,0.10
2023-01-28T03:36:25.296Z,0.10
2023-01-28T03:38:52.912Z,0.10
2023-01-28T03:41:22.568Z,0.10
2023-01-28T03:43:49.667Z,0.10
2023-01-28T03:46:16.416Z,0.10
2023-01-28T03:48:43.233Z,0.10
2023-01-28T03:51:11.280Z,0.10
2023-01-28T03:53:39.725Z,0.18
2023-01-28T03:56:08.162Z,0.18
2023-01-28T03:58:53.093Z,0.20
2023-01-28T04:01:20.156Z,0.18
2023-01-28T04:03:47.565Z,0.12
2023-01-28T04:06:18.269Z,0.20
2023-01-28T04:09:05.277Z,0.20
2023-01-28T04:11:50.496Z,0.20
2023-01-28T04:14:22.893Z,0.20
2023-01-28T04:17:11.936Z,0.20
2023-01-28T04:19:39.717Z,0.22
2023-01-28T04:22:09.973Z,0.30
2023-01-28T04:24:36.815Z,0.30
2023-01-28T04:27:03.374Z,0.30
2023-01-28T04:29:31.100Z,0.30
2023-01-28T04:32:05.559Z,0.32
2023-01-28T04:34:39.480Z,0.40
2023-01-28T04:37:26.018Z,0.40
2023-01-28T04:40:11.952Z,0.40
2023-01-28T04:42:56.421Z,0.40
2023-01-28T04:45:47.065Z,0.40
2023-01-28T04:48:30.769Z,0.40
2023-01-28T04:51:26.328Z,0.40
2023-01-28T04:54:12.037Z,0.40
2023-01-28T04:56:38.603Z,0.40
2023-01-28T04:59:05.379Z,0.40
2023-01-28T05:01:33.647Z,0.40
2023-01-28T05:04:04.915Z,0.40
2023-01-28T05:06:34.087Z,0.40
2023-01-28T05:09:12.283Z,0.40
2023-01-28T05:11:40.034Z,0.40
2023-01-28T05:14:07.752Z,0.30
2023-01-28T05:16:40.606Z,0.30
2023-01-28T05:19:07.857Z,0.30
2023-01-28T05:21:41.124Z,0.30
2023-01-28T05:24:33.689Z,0.30
2023-01-28T05:27:00.397Z,0.30
2023-01-28T05:29:27.135Z,0.30
2023-01-28T05:31:53.653Z,0.20
2023-01-28T05:34:20.451Z,0.20
2023-01-28T05:36:47.266Z,0.20
2023-01-28T05:39:34.120Z,0.20
2023-01-28T05:42:00.836Z,0.20
2023-01-28T05:44:28.278Z,0.20
2023-01-28T05:47:06.260Z,0.20
2023-01-28T05:49:51.316Z,0.20
2023-01-28T05:52:36.710Z,0.20
2023-01-28T05:55:05.878Z,0.20
2023-01-28T05:57:33.833Z,0.20
2023-01-28T06:00:01.457Z,0.20
2023-01-28T06:02:29.397Z,0.20
2023-01-28T06:05:00.073Z,0.20
2023-01-28T06:07:27.017Z,0.20
2023-01-28T06:09:53.757Z,0.20
2023-01-28T06:12:22.148Z,0.20
2023-01-28T06:15:09.724Z,0.20
2023-01-28T06:17:51.553Z,0.20
2023-01-28T06:20:26.843Z,0.20
2023-01-28T06:22:56.252Z,0.20
2023-01-28T06:25:23.293Z,0.20
2023-01-28T06:27:49.872Z,0.20
2023-01-28T06:30:17.163Z,0.20
2023-01-28T06:32:44.228Z,0.22
2023-01-28T06:35:11.363Z,0.22
2023-01-28T06:37:39.046Z,0.20
2023-01-28T06:40:07.114Z,0.20
2023-01-28T06:42:33.654Z,0.20
2023-01-28T06:45:00.162Z,0.20
2023-01-28T06:47:27.176Z,0.20
2023-01-28T06:49:53.609Z,0.20
2023-01-28T06:52:20.216Z,0.20
2023-01-28T06:54:46.755Z,0.20
2023-01-28T06:57:13.194Z,0.22
2023-01-28T06:59:39.785Z,0.30
2023-01-28T07:02:06.491Z,0.28
2023-01-28T07:04:32.994Z,0.30
2023-01-28T07:06:59.495Z,0.30
2023-01-28T07:09:26.184Z,0.30
2023-01-28T07:11:52.766Z,0.30
2023-01-28T07:14:19.439Z,0.30
2023-01-28T07:16:46.026Z,0.30
2023-01-28T07:19:12.493Z,0.30
2023-01-28T07:21:39.154Z,0.30
2023-01-28T07:24:06.611Z,0.36
2023-01-28T07:26:33.278Z,0.40
2023-01-28T07:28:59.761Z,0.36
2023-01-28T07:31:26.482Z,0.40
2023-01-28T07:33:53.225Z,0.40
2023-01-28T07:36:19.873Z,0.38
2023-01-28T07:38:46.544Z,0.40
2023-01-28T07:41:13.029Z,0.40
2023-01-28T07:43:39.531Z,0.40
2023-01-28T07:46:06.148Z,0.40
2023-01-28T07:48:35.366Z,0.40
2023-01-28T07:51:03.296Z,0.40
2023-01-28T07:53:30.086Z,0.40
2023-01-28T07:56:00.934Z,0.40
2023-01-28T07:58:27.418Z,0.40
2023-01-28T08:01:00.398Z,0.40
2023-01-28T08:03:27.325Z,0.40
2023-01-28T08:05:55.527Z,0.40
2023-01-28T08:08:23.596Z,0.40
2023-01-28T08:10:50.193Z,0.40
2023-01-28T08:13:17.257Z,0.40
2023-01-28T08:15:46.394Z,0.40
2023-01-28T08:18:14.292Z,0.42
2023-01-28T08:20:42.928Z,0.44
2023-01-28T08:23:18.180Z,0.44
2023-01-28T08:25:45.579Z,0.50
2023-01-28T08:28:13.836Z,0.50
2023-01-28T08:30:40.676Z,0.50
2023-01-28T08:33:09.423Z,0.50
2023-01-28T08:35:35.897Z,0.50
2023-01-28T08:38:03.526Z,0.50
2023-01-28T08:40:30.574Z,0.50
2023-01-28T08:42:58.648Z,0.50
2023-01-28T08:45:27.915Z,0.52
2023-01-28T08:47:57.045Z,0.56
2023-01-28T08:50:25.522Z,0.56
2023-01-28T08:52:56.863Z,0.60
2023-01-28T08:55:24.467Z,0.60
2023-01-28T08:57:51.351Z,0.60
2023-01-28T09:00:18.312Z,0.60
2023-01-28T09:02:45.089Z,0.60
2023-01-28T09:05:12.173Z,0.60
2023-01-28T09:07:39.343Z,0.60
2023-01-28T09:10:06.454Z,0.60
2023-01-28T09:12:33.242Z,0.60
2023-01-28T09:14:59.855Z,0.60
2023-01-28T09:17:27.001Z,0.60
2023-01-28T09:19:53.618Z,0.60
2023-01-28T09:22:20.193Z,0.60
2023-01-28T09:24:46.852Z,0.62
2023-01-28T09:27:13.423Z,0.60
2023-01-28T09:29:40.072Z,0.62
2023-01-28T09:32:06.745Z,0.70
2023-01-28T09:34:33.931Z,0.70
2023-01-28T09:37:00.514Z,0.70
2023-01-28T09:39:28.023Z,0.70
2023-01-28T09:42:22.498Z,0.70
2023-01-28T09:45:12.574Z,0.80
2023-01-28T09:47:42.151Z,0.80
2023-01-28T09:50:35.809Z,0.80
2023-01-28T09:53:13.165Z,0.80
2023-01-28T09:55:43.900Z,0.80
2023-01-28T09:58:16.985Z,0.80
2023-01-28T10:01:21.120Z,0.80
2023-01-28T10:04:15.876Z,0.80
2023-01-28T10:07:01.235Z,0.84
2023-01-28T10:09:53.114Z,0.90
2023-01-28T10:12:40.891Z,0.88
2023-01-28T10:15:28.173Z,0.90
2023-01-28T10:18:16.186Z,0.90
2023-01-28T10:21:02.859Z,0.90
2023-01-28T10:23:57.926Z,0.90
2023-01-28T10:26:34.386Z,0.90
2023-01-28T10:29:11.232Z,0.92
2023-01-28T10:31:43.778Z,0.98
2023-01-28T10:34:10.753Z,1.00
2023-01-28T10:36:37.167Z,1.00
2023-01-28T10:39:04.167Z,1.00
2023-01-28T10:41:30.800Z,1.00
2023-01-28T10:43:57.627Z,1.00
2023-01-28T10:46:32.839Z,1.00
2023-01-28T10:49:22.219Z,1.00
2023-01-28T10:51:48.781Z,1.02
2023-01-28T10:54:21.576Z,1.04
2023-01-28T10:56:51.661Z,1.10
2023-01-28T10:59:22.938Z,1.10
2023-01-28T11:02:31.530Z,1.10
2023-01-28T11:05:13.841Z,1.10
2023-01-28T11:07:40.303Z,1.10
2023-01-28T11:10:42.542Z,1.10
2023-01-28T11:13:22.472Z,1.10
2023-01-28T11:16:27.544Z,1.10
2023-01-28T11:19:00.139Z,1.10
2023-01-28T11:21:28.877Z,1.14
2023-01-28T11:23:59.473Z,1.16
2023-01-28T11:26:36.146Z,1.18
2023-01-28T11:29:02.905Z,1.20
2023-01-28T11:31:29.424Z,1.20
2023-01-28T11:33:57.595Z,1.20
2023-01-28T11:36:26.549Z,1.20
2023-01-28T11:38:58.297Z,1.20
2023-01-28T11:41:33.444Z,1.20
2023-01-28T11:44:25.800Z,1.20
2023-01-28T11:47:17.590Z,1.20
2023-01-28T11:50:23.890Z,1.20
2023-01-28T11:53:20.128Z,1.20
2023-01-28T11:56:07.139Z,1.20
2023-01-28T16:00:39.447Z,0.10
2023-01-28T16:03:09.660Z,0.10
2023-01-28T16:05:39.358Z,0.20
2023-01-28T16:08:10.712Z,0.20
2023-01-28T16:10:37.767Z,0.20
2023-01-28T16:13:11.076Z,0.20
2023-01-28T16:15:38.763Z,0.20
2023-01-28T16:18:06.847Z,0.16
2023-01-28T16:20:33.430Z,0.20
2023-01-28T16:23:02.002Z,0.20
2023-01-28T16:25:32.123Z,0.20
2023-01-28T16:28:00.497Z,0.20
2023-01-28T16:30:28.084Z,0.20
2023-01-28T16:32:57.873Z,0.20
2023-01-28T16:35:37.925Z,0.20
2023-01-28T16:38:16.390Z,0.20
2023-01-28T16:40:44.343Z,0.20
2023-01-28T16:43:11.901Z,0.20
2023-01-28T16:45:38.705Z,0.20
2023-01-28T16:48:05.877Z,0.18
2023-01-28T16:50:32.513Z,0.20
2023-01-28T16:53:00.649Z,0.10
2023-01-28T16:55:27.456Z,0.10
2023-01-28T16:57:55.759Z,0.10
2023-01-28T17:00:24.922Z,0.10
2023-01-28T17:02:52.850Z,0.12
2023-01-28T17:05:20.719Z,0.12
2023-01-28T17:07:48.831Z,0.14
2023-01-28T17:10:16.854Z,0.10
2023-01-28T17:12:44.211Z,0.14
2023-01-28T17:15:11.359Z,0.10
2023-01-28T17:17:37.844Z,0.10
2023-01-28T17:20:07.770Z,0.10
2023-01-28T17:22:34.212Z,0.10
2023-01-28T17:25:00.819Z,0.10
2023-01-28T17:27:28.653Z,0.10
2023-01-28T17:29:55.035Z,0.10
2023-01-28T17:32:21.774Z,0.10
2023-01-28T17:34:51.110Z,0.10
2023-01-28T17:37:17.646Z,0.10
2023-01-28T17:39:47.181Z,0.10
2023-01-28T17:42:16.165Z,0.10
2023-01-28T17:44:43.029Z,0.10
2023-01-28T17:47:09.536Z,0.10
2023-01-28T17:49:35.903Z,0.14
2023-01-28T17:52:02.892Z,0.20
2023-01-28T17:54:29.399Z,0.18
2023-01-28T17:56:56.093Z,0.16
2023-01-28T17:59:25.725Z,0.20
2023-01-28T18:01:54.016Z,0.12
2023-01-28T18:04:20.449Z,0.20
2023-01-28T18:06:48.702Z,0.20
2023-01-28T18:09:15.509Z,0.16
2023-01-28T18:11:42.369Z,0.16
2023-01-28T18:14:08.883Z,0.16
2023-01-28T18:16:35.665Z,0.16
2023-01-28T18:19:02.133Z,0.12
2023-01-28T18:21:51.833Z,0.10
2023-01-28T18:24:20.894Z,0.10
2023-01-28T18:26:47.552Z,0.10
2023-01-28T18:29:16.140Z,0.10
2023-01-28T18:31:42.590Z,0.10
2023-01-28T18:34:09.065Z,0.02
2023-01-28T18:36:35.631Z,0.04
2023-01-28T18:39:02.193Z,0.00
2023-01-28T18:41:28.827Z,0.00
2023-01-28T18:43:55.285Z,0.00
2023-01-28T18:46:21.806Z,0.00
2023-01-28T18:48:48.299Z,0.00
2023-01-28T18:51:28.850Z,0.00
2023-01-28T18:54:03.513Z,0.00
2023-01-28T18:56:30.466Z,0.00
2023-01-28T18:59:01.905Z,0.06
2023-01-28T19:01:29.386Z,0.00
2023-01-28T19:03:56.731Z,0.00
2023-01-28T19:06:23.395Z,0.00
2023-01-28T19:08:52.866Z,0.00
2023-01-28T19:11:20.837Z,0.00
2023-01-28T19:13:47.135Z,0.00
2023-01-28T19:16:13.695Z,-0.04
2023-01-28T19:18:40.620Z,-0.08
2023-01-28T19:21:07.340Z,-0.10
2023-01-28T19:23:48.918Z,-0.10
2023-01-28T19:26:20.336Z,-0.10
2023-01-28T19:28:48.677Z,-0.10
2023-01-28T19:31:17.815Z,-0.10
2023-01-28T19:33:45.700Z,-0.10
2023-01-28T19:36:12.992Z,-0.10
2023-01-28T19:38:39.891Z,-0.10
2023-01-28T19:41:06.788Z,-0.12
2023-01-28T19:43:34.147Z,-0.10
2023-01-28T19:46:03.867Z,-0.16
2023-01-28T19:48:31.047Z,-0.14
2023-01-28T19:50:58.627Z,-0.16
2023-01-28T19:53:24.999Z,-0.20
2023-01-28T19:55:52.344Z,-0.18
2023-01-28T19:58:19.375Z,-0.20
2023-01-28T20:00:45.853Z,-0.20
2023-01-28T20:03:12.342Z,-0.20
2023-01-28T20:05:38.957Z,-0.20
2023-01-28T20:08:05.850Z,-0.20
2023-01-28T20:10:32.537Z,-0.20
2023-01-28T20:12:59.219Z,-0.20
2023-01-28T20:15:25.850Z,-0.20
2023-01-28T20:17:53.345Z,-0.20
2023-01-28T20:20:20.026Z,-0.20
2023-01-28T20:22:46.558Z,-0.26
2023-01-28T20:25:14.680Z,-0.30
2023-01-28T20:27:41.429Z,-0.30
2023-01-28T20:30:09.522Z,-0.30
2023-01-28T20:32:36.096Z,-0.28
2023-01-28T20:35:02.617Z,-0.28
2023-01-28T20:37:30.404Z,-0.24
2023-01-28T20:39:57.848Z,-0.22
2023-01-28T20:42:24.373Z,-0.28
2023-01-28T20:44:51.049Z,-0.26
2023-01-28T20:47:17.607Z,-0.28
2023-01-28T20:49:44.215Z,-0.30
2023-01-28T20:52:10.751Z,-0.30
2023-01-28T20:54:37.317Z,-0.30
2023-01-28T20:57:03.887Z,-0.30
2023-01-28T20:59:31.643Z,-0.30
2023-01-28T21:01:59.992Z,-0.34
2023-01-28T21:04:26.562Z,-0.40
2023-01-28T21:06:53.036Z,-0.40
2023-01-28T21:09:19.524Z,-0.40
2023-01-28T21:11:45.976Z,-0.40
2023-01-28T21:14:16.116Z,-0.42
2023-01-28T21:16:44.043Z,-0.42
2023-01-28T21:19:10.812Z,-0.44
2023-01-28T21:21:41.930Z,-0.50
2023-01-28T21:24:10.894Z,-0.50
2023-01-28T21:26:37.585Z,-0.50
2023-01-28T21:29:04.334Z,-0.50
2023-01-28T21:31:30.817Z,-0.50
2023-01-28T21:34:00.481Z,-0.50
2023-01-28T21:36:27.204Z,-0.50
2023-01-28T21:38:59.457Z,-0.50
2023-01-28T21:41:26.551Z,-0.50
2023-01-28T21:43:54.463Z,-0.50
2023-01-28T21:46:22.100Z,-0.56
2023-01-28T21:48:52.304Z,-0.60
2023-01-28T21:51:57.669Z,-0.56
2023-01-28T21:54:24.079Z,-0.58
2023-01-28T21:56:50.913Z,-0.60
2023-01-28T21:59:27.959Z,-0.60
2023-01-28T22:01:59.410Z,-0.60
2023-01-28T22:04:32.054Z,-0.60
2023-01-28T22:06:59.167Z,-0.60
2023-01-28T22:09:26.742Z,-0.68
2023-01-28T22:11:53.290Z,-0.70
2023-01-28T22:14:20.165Z,-0.70
2023-01-28T22:16:47.122Z,-0.70
2023-01-28T22:19:14.097Z,-0.70
2023-01-28T22:21:42.496Z,-0.70
2023-01-28T22:24:13.908Z,-0.80
2023-01-28T22:26:40.949Z,-0.78
2023-01-28T22:29:08.833Z,-0.78
2023-01-28T22:31:35.556Z,-0.80
2023-01-28T22:34:02.980Z,-0.80
2023-01-28T22:36:31.778Z,-0.80
2023-01-28T22:38:58.548Z,-0.80
2023-01-28T22:41:25.039Z,-0.80
2023-01-28T22:43:51.669Z,-0.82
2023-01-28T22:46:20.964Z,-0.82
2023-01-28T22:48:48.131Z,-0.80
2023-01-28T22:51:20.579Z,-0.84
2023-01-28T22:53:47.381Z,-0.84
2023-01-28T22:56:14.453Z,-0.82
2023-01-28T22:58:40.991Z,-0.90
2023-01-28T23:01:07.784Z,-0.90
2023-01-28T23:03:34.568Z,-0.90
2023-01-28T23:06:03.813Z,-0.90
2023-01-28T23:08:30.634Z,-1.00
2023-01-28T23:11:00.260Z,-1.00
2023-01-28T23:13:47.266Z,-1.02
2023-01-28T23:16:32.682Z,-1.02
2023-01-28T23:19:17.918Z,-1.00
2023-01-28T23:22:03.392Z,-1.06
2023-01-28T23:24:32.222Z,-1.10
2023-01-28T23:27:01.133Z,-1.10
2023-01-28T23:29:28.077Z,-1.10
2023-01-28T23:32:03.176Z,-1.10
2023-01-28T23:34:34.111Z,-1.10
2023-01-28T23:37:02.142Z,-1.18
2023-01-28T23:39:28.687Z,-1.20
2023-01-28T23:41:55.218Z,-1.20
2023-01-28T23:44:26.140Z,-1.20
2023-01-28T23:46:53.766Z,-1.30
2023-01-28T23:49:20.466Z,-1.30
2023-01-28T23:51:47.136Z,-1.30
2023-01-28T23:54:13.765Z,-1.30
2023-01-28T23:56:40.311Z,-1.36
2023-01-28T23:59:06.821Z,-1.36
